sensor_id;sensor_type;location;lat;lon;timestamp;pressure;altitude;pressure_sealevel;temperature;humidity
76551;BME280;68768;53.156;18.164;2023-07-29T00:00:07;100572.28;;;16.53;75.31
76551;BME280;68768;53.156;18.164;2023-07-29T00:02:59;100576.46;;;16.49;75.38
76551;BME280;68768;53.156;18.164;2023-07-29T00:05:26;100575.89;;;16.47;75.51
76551;BME280;68768;53.156;18.164;2023-07-29T00:07:53;100577.56;;;16.44;75.48
76551;BME280;68768;53.156;18.164;2023-07-29T00:10:20;100575.92;;;16.41;75.61
76551;BME280;68768;53.156;18.164;2023-07-29T00:12:47;100574.07;;;16.39;75.80
76551;BME280;68768;53.156;18.164;2023-07-29T00:15:14;100578.46;;;16.35;75.79
76551;BME280;68768;53.156;18.164;2023-07-29T00:17:41;100584.09;;;16.32;75.83
76551;BME280;68768;53.156;18.164;2023-07-29T00:20:08;100579.70;;;16.30;76.06
76551;BME280;68768;53.156;18.164;2023-07-29T00:22:36;100582.16;;;16.28;76.14
76551;BME280;68768;53.156;18.164;2023-07-29T00:25:03;100582.68;;;16.26;76.13
76551;BME280;68768;53.156;18.164;2023-07-29T00:27:29;100584.30;;;16.26;76.22
76551;BME280;68768;53.156;18.164;2023-07-29T00:29:56;100582.76;;;16.24;76.27
76551;BME280;68768;53.156;18.164;2023-07-29T00:32:23;100582.79;;;16.21;76.33
76551;BME280;68768;53.156;18.164;2023-07-29T00:34:50;100582.82;;;16.17;76.26
76551;BME280;68768;53.156;18.164;2023-07-29T00:37:17;100586.36;;;16.15;76.27
76551;BME280;68768;53.156;18.164;2023-07-29T00:39:46;100587.90;;;16.13;76.31
76551;BME280;68768;53.156;18.164;2023-07-29T00:42:13;100590.96;;;16.10;76.31
76551;BME280;68768;53.156;18.164;2023-07-29T00:44:40;100591.27;;;16.08;76.27
76551;BME280;68768;53.156;18.164;2023-07-29T00:47:07;100593.28;;;16.05;76.34
76551;BME280;68768;53.156;18.164;2023-07-29T00:49:34;100596.42;;;16.00;76.32
76551;BME280;68768;53.156;18.164;2023-07-29T00:52:01;100596.89;;;15.96;76.38
76551;BME280;68768;53.156;18.164;2023-07-29T00:54:28;100599.38;;;15.94;76.53
76551;BME280;68768;53.156;18.164;2023-07-29T00:56:56;100599.90;;;15.91;76.75
76551;BME280;68768;53.156;18.164;2023-07-29T00:59:23;100597.01;;;15.88;76.71
76551;BME280;68768;53.156;18.164;2023-07-29T01:01:50;100594.61;;;15.87;76.70
76551;BME280;68768;53.156;18.164;2023-07-29T01:04:17;100590.78;;;15.85;76.69
76551;BME280;68768;53.156;18.164;2023-07-29T01:06:53;100592.74;;;15.82;76.74
76551;BME280;68768;53.156;18.164;2023-07-29T01:09:33;100590.25;;;15.79;76.72
76551;BME280;68768;53.156;18.164;2023-07-29T01:12:12;100590.27;;;15.76;76.82
76551;BME280;68768;53.156;18.164;2023-07-29T01:17:11;100589.45;;;15.69;76.97
76551;BME280;68768;53.156;18.164;2023-07-29T01:22:11;100588.84;;;15.65;77.02
76551;BME280;68768;53.156;18.164;2023-07-29T01:24:39;100593.64;;;15.62;76.96
76551;BME280;68768;53.156;18.164;2023-07-29T01:27:06;100587.50;;;15.60;76.96
76551;BME280;68768;53.156;18.164;2023-07-29T01:29:33;100585.72;;;15.57;76.90
76551;BME280;68768;53.156;18.164;2023-07-29T01:33:08;100584.61;;;15.51;76.93
76551;BME280;68768;53.156;18.164;2023-07-29T01:35:28;100582.91;;;15.40;77.00
76551;BME280;68768;53.156;18.164;2023-07-29T01:38:13;100581.24;;;15.33;77.13
76551;BME280;68768;53.156;18.164;2023-07-29T01:40:42;100579.38;;;15.22;77.03
76551;BME280;68768;53.156;18.164;2023-07-29T01:43:10;100575.02;;;15.17;77.25
76551;BME280;68768;53.156;18.164;2023-07-29T01:45:38;100576.51;;;15.17;77.23
76551;BME280;68768;53.156;18.164;2023-07-29T01:48:07;100577.27;;;15.16;77.35
76551;BME280;68768;53.156;18.164;2023-07-29T01:50:34;100575.27;;;15.13;77.28
76551;BME280;68768;53.156;18.164;2023-07-29T01:53:01;100579.94;;;15.13;77.29
76551;BME280;68768;53.156;18.164;2023-07-29T01:55:28;100583.69;;;15.09;77.36
76551;BME280;68768;53.156;18.164;2023-07-29T01:57:55;100588.44;;;15.08;77.36
76551;BME280;68768;53.156;18.164;2023-07-29T02:00:23;100588.25;;;15.05;77.32
76551;BME280;68768;53.156;18.164;2023-07-29T02:02:50;100585.85;;;15.04;77.34
76551;BME280;68768;53.156;18.164;2023-07-29T02:05:18;100594.71;;;14.99;77.37
76551;BME280;68768;53.156;18.164;2023-07-29T02:07:44;100596.20;;;14.95;77.43
76551;BME280;68768;53.156;18.164;2023-07-29T02:10:11;100596.67;;;14.93;77.44
76551;BME280;68768;53.156;18.164;2023-07-29T02:12:39;100598.54;;;14.88;77.44
76551;BME280;68768;53.156;18.164;2023-07-29T02:15:06;100599.92;;;14.86;77.45
76551;BME280;68768;53.156;18.164;2023-07-29T02:17:34;100602.16;;;14.85;77.44
76551;BME280;68768;53.156;18.164;2023-07-29T02:20:01;100600.63;;;14.83;77.43
76551;BME280;68768;53.156;18.164;2023-07-29T02:22:28;100601.36;;;14.80;77.55
76551;BME280;68768;53.156;18.164;2023-07-29T02:24:55;100602.65;;;14.79;77.49
76551;BME280;68768;53.156;18.164;2023-07-29T02:27:22;100600.48;;;14.76;77.46
76551;BME280;68768;53.156;18.164;2023-07-29T02:29:52;100603.25;;;14.72;77.54
76551;BME280;68768;53.156;18.164;2023-07-29T02:32:19;100598.14;;;14.67;77.56
76551;BME280;68768;53.156;18.164;2023-07-29T02:34:46;100598.23;;;14.66;77.68
76551;BME280;68768;53.156;18.164;2023-07-29T02:37:14;100597.55;;;14.65;77.65
76551;BME280;68768;53.156;18.164;2023-07-29T02:39:41;100597.69;;;14.63;77.58
76551;BME280;68768;53.156;18.164;2023-07-29T02:42:08;100599.27;;;14.60;77.73
76551;BME280;68768;53.156;18.164;2023-07-29T02:44:35;100598.21;;;14.57;77.79
76551;BME280;68768;53.156;18.164;2023-07-29T02:47:02;100601.73;;;14.51;77.79
76551;BME280;68768;53.156;18.164;2023-07-29T02:49:29;100602.54;;;14.47;77.85
76551;BME280;68768;53.156;18.164;2023-07-29T02:51:56;100609.92;;;14.45;77.98
76551;BME280;68768;53.156;18.164;2023-07-29T02:54:23;100606.73;;;14.45;78.02
76551;BME280;68768;53.156;18.164;2023-07-29T02:56:50;100608.79;;;14.46;78.05
76551;BME280;68768;53.156;18.164;2023-07-29T02:59:17;100610.37;;;14.47;77.98
76551;BME280;68768;53.156;18.164;2023-07-29T03:01:44;100617.23;;;14.45;77.91
76551;BME280;68768;53.156;18.164;2023-07-29T03:04:12;100624.10;;;14.44;77.92
76551;BME280;68768;53.156;18.164;2023-07-29T03:06:39;100622.45;;;14.42;77.94
76551;BME280;68768;53.156;18.164;2023-07-29T03:09:06;100629.49;;;14.40;77.87
76551;BME280;68768;53.156;18.164;2023-07-29T03:11:33;100636.66;;;14.35;77.87
76551;BME280;68768;53.156;18.164;2023-07-29T03:14:00;100638.65;;;14.35;78.02
76551;BME280;68768;53.156;18.164;2023-07-29T03:16:27;100638.68;;;14.35;78.08
76551;BME280;68768;53.156;18.164;2023-07-29T03:18:55;100636.73;;;14.35;78.15
76551;BME280;68768;53.156;18.164;2023-07-29T03:21:22;100634.58;;;14.35;78.16
76551;BME280;68768;53.156;18.164;2023-07-29T03:23:49;100634.91;;;14.35;78.09
76551;BME280;68768;53.156;18.164;2023-07-29T03:26:16;100633.28;;;14.36;78.07
76551;BME280;68768;53.156;18.164;2023-07-29T03:28:43;100632.80;;;14.35;78.03
76551;BME280;68768;53.156;18.164;2023-07-29T03:31:11;100628.92;;;14.34;77.96
76551;BME280;68768;53.156;18.164;2023-07-29T03:33:38;100633.16;;;14.38;77.99
76551;BME280;68768;53.156;18.164;2023-07-29T03:36:05;100632.67;;;14.37;77.79
76551;BME280;68768;53.156;18.164;2023-07-29T03:38:32;100636.11;;;14.36;77.84
76551;BME280;68768;53.156;18.164;2023-07-29T03:41:08;100635.14;;;14.38;77.92
76551;BME280;68768;53.156;18.164;2023-07-29T03:43:35;100636.23;;;14.44;78.19
76551;BME280;68768;53.156;18.164;2023-07-29T03:46:02;100636.50;;;14.52;78.09
76551;BME280;68768;53.156;18.164;2023-07-29T03:48:29;100634.73;;;14.58;78.00
76551;BME280;68768;53.156;18.164;2023-07-29T03:50:58;100633.56;;;14.60;77.91
76551;BME280;68768;53.156;18.164;2023-07-29T03:53:25;100631.92;;;14.64;77.91
76551;BME280;68768;53.156;18.164;2023-07-29T03:55:52;100632.11;;;14.70;78.00
76551;BME280;68768;53.156;18.164;2023-07-29T03:58:19;100633.67;;;14.77;78.12
76551;BME280;68768;53.156;18.164;2023-07-29T04:00:46;100635.94;;;14.85;78.08
76551;BME280;68768;53.156;18.164;2023-07-29T04:03:13;100636.50;;;14.90;78.01
76551;BME280;68768;53.156;18.164;2023-07-29T04:05:40;100639.32;;;14.97;78.02
76551;BME280;68768;53.156;18.164;2023-07-29T04:08:07;100641.23;;;15.04;78.01
76551;BME280;68768;53.156;18.164;2023-07-29T04:10:35;100642.89;;;15.12;78.07
76551;BME280;68768;53.156;18.164;2023-07-29T04:13:01;100640.57;;;15.21;77.83
76551;BME280;68768;53.156;18.164;2023-07-29T04:15:29;100641.80;;;15.31;77.81
76551;BME280;68768;53.156;18.164;2023-07-29T04:17:57;100641.42;;;15.43;77.76
76551;BME280;68768;53.156;18.164;2023-07-29T04:20:24;100645.98;;;15.54;77.46
76551;BME280;68768;53.156;18.164;2023-07-29T04:22:51;100646.05;;;15.62;77.32
76551;BME280;68768;53.156;18.164;2023-07-29T04:25:18;100646.55;;;15.71;77.26
76551;BME280;68768;53.156;18.164;2023-07-29T04:27:45;100648.93;;;15.82;77.01
76551;BME280;68768;53.156;18.164;2023-07-29T04:30:12;100650.65;;;15.98;77.01
76551;BME280;68768;53.156;18.164;2023-07-29T04:32:39;100655.42;;;16.16;76.94
76551;BME280;68768;53.156;18.164;2023-07-29T04:35:08;100657.38;;;16.36;76.71
76551;BME280;68768;53.156;18.164;2023-07-29T04:37:37;100659.45;;;16.54;76.39
76551;BME280;68768;53.156;18.164;2023-07-29T04:40:05;100657.98;;;16.72;76.29
76551;BME280;68768;53.156;18.164;2023-07-29T04:42:32;100656.09;;;16.90;75.67
76551;BME280;68768;53.156;18.164;2023-07-29T04:44:59;100657.12;;;17.07;75.61
76551;BME280;68768;53.156;18.164;2023-07-29T04:47:26;100664.70;;;17.28;75.07
76551;BME280;68768;53.156;18.164;2023-07-29T04:49:52;100661.38;;;17.48;75.01
76551;BME280;68768;53.156;18.164;2023-07-29T04:52:19;100660.69;;;17.69;74.81
76551;BME280;68768;53.156;18.164;2023-07-29T04:54:48;100660.69;;;18.02;74.58
76551;BME280;68768;53.156;18.164;2023-07-29T04:57:14;100657.14;;;18.37;74.02
76551;BME280;68768;53.156;18.164;2023-07-29T04:59:41;100665.81;;;18.81;73.57
76551;BME280;68768;53.156;18.164;2023-07-29T05:02:08;100658.90;;;19.26;72.83
76551;BME280;68768;53.156;18.164;2023-07-29T05:04:35;100663.56;;;19.68;72.32
76551;BME280;68768;53.156;18.164;2023-07-29T05:07:03;100664.71;;;20.21;70.92
76551;BME280;68768;53.156;18.164;2023-07-29T05:09:31;100659.96;;;20.66;70.07
76551;BME280;68768;53.156;18.164;2023-07-29T05:11:57;100658.33;;;21.06;69.41
76551;BME280;68768;53.156;18.164;2023-07-29T05:14:25;100658.52;;;21.58;69.26
76551;BME280;68768;53.156;18.164;2023-07-29T05:16:52;100657.92;;;22.02;68.46
76551;BME280;68768;53.156;18.164;2023-07-29T05:19:19;100656.84;;;22.37;67.22
76551;BME280;68768;53.156;18.164;2023-07-29T05:21:46;100654.27;;;22.56;65.02
76551;BME280;68768;53.156;18.164;2023-07-29T05:24:13;100651.45;;;22.63;64.85
76551;BME280;68768;53.156;18.164;2023-07-29T05:26:40;100649.45;;;22.87;65.65
76551;BME280;68768;53.156;18.164;2023-07-29T05:29:07;100648.08;;;23.28;64.56
76551;BME280;68768;53.156;18.164;2023-07-29T05:31:34;100650.06;;;23.55;64.13
76551;BME280;68768;53.156;18.164;2023-07-29T05:34:01;100653.45;;;23.92;63.71
76551;BME280;68768;53.156;18.164;2023-07-29T05:36:28;100656.64;;;24.33;63.22
76551;BME280;68768;53.156;18.164;2023-07-29T05:38:56;100656.44;;;24.73;62.42
76551;BME280;68768;53.156;18.164;2023-07-29T05:41:29;100651.27;;;25.11;61.71
76551;BME280;68768;53.156;18.164;2023-07-29T05:43:57;100646.77;;;25.29;60.54
76551;BME280;68768;53.156;18.164;2023-07-29T05:46:24;100644.65;;;25.39;59.55
76551;BME280;68768;53.156;18.164;2023-07-29T05:48:51;100646.41;;;25.25;57.53
76551;BME280;68768;53.156;18.164;2023-07-29T05:51:18;100646.76;;;25.18;58.97
76551;BME280;68768;53.156;18.164;2023-07-29T05:53:46;100645.45;;;25.20;58.69
76551;BME280;68768;53.156;18.164;2023-07-29T05:56:13;100650.09;;;25.24;58.03
76551;BME280;68768;53.156;18.164;2023-07-29T05:58:40;100647.23;;;25.35;58.16
76551;BME280;68768;53.156;18.164;2023-07-29T06:01:07;100645.76;;;25.47;57.96
76551;BME280;68768;53.156;18.164;2023-07-29T06:03:34;100646.66;;;25.64;57.04
76551;BME280;68768;53.156;18.164;2023-07-29T06:06:02;100648.00;;;25.79;56.55
76551;BME280;68768;53.156;18.164;2023-07-29T06:08:29;100654.26;;;25.89;56.53
76551;BME280;68768;53.156;18.164;2023-07-29T06:10:56;100653.31;;;26.03;55.67
76551;BME280;68768;53.156;18.164;2023-07-29T06:13:23;100650.11;;;26.18;55.64
76551;BME280;68768;53.156;18.164;2023-07-29T06:15:50;100650.10;;;26.33;54.93
76551;BME280;68768;53.156;18.164;2023-07-29T06:18:17;100651.50;;;26.48;54.37
76551;BME280;68768;53.156;18.164;2023-07-29T06:20:44;100657.83;;;26.53;53.96
76551;BME280;68768;53.156;18.164;2023-07-29T06:23:11;100659.02;;;26.49;53.52
76551;BME280;68768;53.156;18.164;2023-07-29T06:25:38;100657.15;;;26.65;53.92
76551;BME280;68768;53.156;18.164;2023-07-29T06:28:05;100653.45;;;26.94;53.95
76551;BME280;68768;53.156;18.164;2023-07-29T06:30:32;100649.30;;;27.21;52.51
76551;BME280;68768;53.156;18.164;2023-07-29T06:32:59;100647.31;;;27.39;51.65
76551;BME280;68768;53.156;18.164;2023-07-29T06:35:26;100646.17;;;27.33;50.84
76551;BME280;68768;53.156;18.164;2023-07-29T06:37:53;100649.58;;;27.30;51.07
76551;BME280;68768;53.156;18.164;2023-07-29T06:40:20;100649.95;;;27.22;51.01
76551;BME280;68768;53.156;18.164;2023-07-29T06:42:47;100646.71;;;27.19;50.54
76551;BME280;68768;53.156;18.164;2023-07-29T06:45:15;100650.88;;;27.36;50.71
76551;BME280;68768;53.156;18.164;2023-07-29T06:47:42;100645.42;;;27.69;51.12
76551;BME280;68768;53.156;18.164;2023-07-29T06:50:09;100650.38;;;28.09;50.43
76551;BME280;68768;53.156;18.164;2023-07-29T06:52:37;100651.04;;;28.35;49.83
76551;BME280;68768;53.156;18.164;2023-07-29T06:55:05;100654.14;;;28.59;49.05
76551;BME280;68768;53.156;18.164;2023-07-29T06:57:32;100653.55;;;28.74;48.90
76551;BME280;68768;53.156;18.164;2023-07-29T06:59:59;100646.06;;;28.99;48.55
76551;BME280;68768;53.156;18.164;2023-07-29T07:02:27;100646.59;;;29.28;47.92
76551;BME280;68768;53.156;18.164;2023-07-29T07:04:55;100643.46;;;29.49;47.47
76551;BME280;68768;53.156;18.164;2023-07-29T07:07:22;100639.42;;;29.61;47.57
76551;BME280;68768;53.156;18.164;2023-07-29T07:09:49;100635.55;;;29.81;46.91
76551;BME280;68768;53.156;18.164;2023-07-29T07:12:16;100635.98;;;30.00;47.04
76551;BME280;68768;53.156;18.164;2023-07-29T07:14:43;100631.14;;;30.25;46.48
76551;BME280;68768;53.156;18.164;2023-07-29T07:17:10;100626.78;;;30.46;46.15
76551;BME280;68768;53.156;18.164;2023-07-29T07:19:37;100626.80;;;30.70;45.08
76551;BME280;68768;53.156;18.164;2023-07-29T07:22:04;100624.70;;;30.67;43.61
76551;BME280;68768;53.156;18.164;2023-07-29T07:24:31;100625.33;;;30.70;44.01
76551;BME280;68768;53.156;18.164;2023-07-29T07:26:59;100626.24;;;30.86;43.78
76551;BME280;68768;53.156;18.164;2023-07-29T07:29:26;100626.59;;;30.99;43.57
76551;BME280;68768;53.156;18.164;2023-07-29T07:31:53;100626.52;;;31.20;43.14
76551;BME280;68768;53.156;18.164;2023-07-29T07:34:22;100622.75;;;31.28;42.59
76551;BME280;68768;53.156;18.164;2023-07-29T07:36:49;100618.41;;;31.42;42.59
76551;BME280;68768;53.156;18.164;2023-07-29T07:39:16;100614.19;;;31.55;42.16
76551;BME280;68768;53.156;18.164;2023-07-29T07:41:44;100618.77;;;31.75;42.07
76551;BME280;68768;53.156;18.164;2023-07-29T07:44:11;100619.80;;;31.87;41.00
76551;BME280;68768;53.156;18.164;2023-07-29T07:46:42;100615.64;;;31.86;40.89
76551;BME280;68768;53.156;18.164;2023-07-29T07:49:09;100609.55;;;31.87;39.85
76551;BME280;68768;53.156;18.164;2023-07-29T07:51:36;100610.71;;;31.83;40.17
76551;BME280;68768;53.156;18.164;2023-07-29T07:54:03;100608.42;;;31.84;40.51
76551;BME280;68768;53.156;18.164;2023-07-29T07:56:30;100609.95;;;31.89;39.65
76551;BME280;68768;53.156;18.164;2023-07-29T07:58:57;100605.32;;;31.70;38.98
76551;BME280;68768;53.156;18.164;2023-07-29T08:01:24;100602.52;;;31.53;39.42
76551;BME280;68768;53.156;18.164;2023-07-29T08:03:51;100604.29;;;31.52;40.22
76551;BME280;68768;53.156;18.164;2023-07-29T08:06:18;100603.75;;;31.72;39.67
76551;BME280;68768;53.156;18.164;2023-07-29T08:08:45;100599.33;;;31.86;39.18
76551;BME280;68768;53.156;18.164;2023-07-29T08:11:12;100596.61;;;31.90;38.44
76551;BME280;68768;53.156;18.164;2023-07-29T08:13:39;100598.49;;;31.98;38.74
76551;BME280;68768;53.156;18.164;2023-07-29T08:16:06;100594.79;;;32.05;38.36
76551;BME280;68768;53.156;18.164;2023-07-29T08:18:33;100593.20;;;32.19;38.34
76551;BME280;68768;53.156;18.164;2023-07-29T08:21:00;100590.39;;;32.22;37.73
76551;BME280;68768;53.156;18.164;2023-07-29T08:23:32;100589.95;;;32.25;37.47
76551;BME280;68768;53.156;18.164;2023-07-29T08:26:01;100590.02;;;32.21;36.56
76551;BME280;68768;53.156;18.164;2023-07-29T08:28:37;100587.79;;;32.00;37.58
76551;BME280;68768;53.156;18.164;2023-07-29T08:31:05;100583.65;;;31.95;36.80
76551;BME280;68768;53.156;18.164;2023-07-29T08:33:32;100583.13;;;31.82;35.74
76551;BME280;68768;53.156;18.164;2023-07-29T08:36:00;100579.25;;;31.59;37.44
76551;BME280;68768;53.156;18.164;2023-07-29T08:38:27;100582.16;;;31.59;37.03
76551;BME280;68768;53.156;18.164;2023-07-29T08:41:16;100575.35;;;31.69;36.87
76551;BME280;68768;53.156;18.164;2023-07-29T08:44:01;100571.88;;;31.80;36.44
76551;BME280;68768;53.156;18.164;2023-07-29T08:46:31;100573.93;;;31.87;36.25
76551;BME280;68768;53.156;18.164;2023-07-29T08:48:59;100567.73;;;31.89;36.14
76551;BME280;68768;53.156;18.164;2023-07-29T08:51:27;100567.29;;;31.77;36.63
76551;BME280;68768;53.156;18.164;2023-07-29T08:53:55;100567.10;;;31.80;36.67
76551;BME280;68768;53.156;18.164;2023-07-29T08:56:22;100563.15;;;31.83;36.03
76551;BME280;68768;53.156;18.164;2023-07-29T08:58:50;100561.13;;;31.79;35.96
76551;BME280;68768;53.156;18.164;2023-07-29T09:01:18;100558.59;;;31.61;35.16
76551;BME280;68768;53.156;18.164;2023-07-29T09:03:45;100558.77;;;31.36;35.88
76551;BME280;68768;53.156;18.164;2023-07-29T09:06:14;100558.50;;;31.26;36.32
76551;BME280;68768;53.156;18.164;2023-07-29T09:08:41;100560.25;;;31.18;36.19
76551;BME280;68768;53.156;18.164;2023-07-29T09:11:08;100556.31;;;31.13;36.41
76551;BME280;68768;53.156;18.164;2023-07-29T09:13:35;100555.12;;;31.18;36.39
76551;BME280;68768;53.156;18.164;2023-07-29T09:16:04;100548.77;;;31.20;35.89
76551;BME280;68768;53.156;18.164;2023-07-29T09:18:31;100547.83;;;31.15;36.38
76551;BME280;68768;53.156;18.164;2023-07-29T09:20:59;100549.55;;;31.16;36.36
76551;BME280;68768;53.156;18.164;2023-07-29T09:23:27;100541.69;;;31.24;36.15
76551;BME280;68768;53.156;18.164;2023-07-29T09:26:02;100548.27;;;31.19;36.05
76551;BME280;68768;53.156;18.164;2023-07-29T09:28:36;100544.10;;;31.23;36.02
76551;BME280;68768;53.156;18.164;2023-07-29T09:31:04;100542.77;;;31.26;35.54
76551;BME280;68768;53.156;18.164;2023-07-29T09:33:35;100546.22;;;31.20;35.76
76551;BME280;68768;53.156;18.164;2023-07-29T09:36:08;100541.61;;;31.09;35.77
76551;BME280;68768;53.156;18.164;2023-07-29T09:38:37;100540.92;;;30.99;35.67
76551;BME280;68768;53.156;18.164;2023-07-29T09:41:04;100542.98;;;30.93;36.26
76551;BME280;68768;53.156;18.164;2023-07-29T09:43:33;100540.46;;;30.91;36.38
76551;BME280;68768;53.156;18.164;2023-07-29T09:46:02;100535.63;;;30.93;36.23
76551;BME280;68768;53.156;18.164;2023-07-29T09:48:33;100538.79;;;30.88;36.32
76551;BME280;68768;53.156;18.164;2023-07-29T09:51:14;100538.42;;;30.68;36.05
76551;BME280;68768;53.156;18.164;2023-07-29T09:53:43;100531.91;;;30.55;36.00
76551;BME280;68768;53.156;18.164;2023-07-29T09:56:11;100534.47;;;30.47;35.88
76551;BME280;68768;53.156;18.164;2023-07-29T09:58:38;100534.00;;;30.26;35.69
76551;BME280;68768;53.156;18.164;2023-07-29T10:01:06;100528.09;;;30.03;36.16
76551;BME280;68768;53.156;18.164;2023-07-29T10:03:34;100521.73;;;29.83;36.44
76551;BME280;68768;53.156;18.164;2023-07-29T10:06:03;100522.67;;;29.74;37.05
76551;BME280;68768;53.156;18.164;2023-07-29T10:08:31;100517.85;;;29.73;36.90
76551;BME280;68768;53.156;18.164;2023-07-29T10:10:59;100517.98;;;29.67;36.88
76551;BME280;68768;53.156;18.164;2023-07-29T10:13:26;100517.96;;;29.61;37.43
76551;BME280;68768;53.156;18.164;2023-07-29T10:15:54;100522.98;;;29.63;37.74
76551;BME280;68768;53.156;18.164;2023-07-29T10:18:25;100512.73;;;29.68;37.76
76551;BME280;68768;53.156;18.164;2023-07-29T10:20:54;100514.02;;;29.50;37.72
76551;BME280;68768;53.156;18.164;2023-07-29T10:23:25;100509.31;;;29.41;37.64
76551;BME280;68768;53.156;18.164;2023-07-29T10:26:02;100508.23;;;29.35;37.89
76551;BME280;68768;53.156;18.164;2023-07-29T10:28:32;100503.03;;;29.27;37.65
76551;BME280;68768;53.156;18.164;2023-07-29T10:30:59;100505.65;;;29.16;37.49
76551;BME280;68768;53.156;18.164;2023-07-29T10:33:26;100499.71;;;29.05;38.18
76551;BME280;68768;53.156;18.164;2023-07-29T10:35:54;100493.10;;;29.04;38.59
76551;BME280;68768;53.156;18.164;2023-07-29T10:38:22;100497.15;;;28.94;38.66
76551;BME280;68768;53.156;18.164;2023-07-29T10:40:55;100499.40;;;28.88;38.71
76551;BME280;68768;53.156;18.164;2023-07-29T10:43:42;100504.19;;;28.83;38.68
76551;BME280;68768;53.156;18.164;2023-07-29T10:53:57;100499.31;;;28.73;39.30
76551;BME280;68768;53.156;18.164;2023-07-29T10:56:33;100491.94;;;28.66;39.15
76551;BME280;68768;53.156;18.164;2023-07-29T10:59:32;100492.98;;;28.52;39.28
76551;BME280;68768;53.156;18.164;2023-07-29T11:02:01;100487.83;;;28.42;39.35
76551;BME280;68768;53.156;18.164;2023-07-29T11:04:31;100482.61;;;28.32;39.50
76551;BME280;68768;53.156;18.164;2023-07-29T11:12:35;100472.55;;;28.15;39.85
76551;BME280;68768;53.156;18.164;2023-07-29T11:17:42;100465.01;;;28.11;40.85
76551;BME280;68768;53.156;18.164;2023-07-29T11:20:10;100457.14;;;28.12;40.70
76551;BME280;68768;53.156;18.164;2023-07-29T11:22:38;100459.17;;;28.17;40.68
76551;BME280;68768;53.156;18.164;2023-07-29T11:25:08;100452.91;;;28.22;40.25
76551;BME280;68768;53.156;18.164;2023-07-29T11:27:36;100451.44;;;28.19;40.36
76551;BME280;68768;53.156;18.164;2023-07-29T11:30:06;100445.11;;;28.17;40.01
76551;BME280;68768;53.156;18.164;2023-07-29T11:32:34;100444.35;;;28.11;40.05
76551;BME280;68768;53.156;18.164;2023-07-29T11:35:03;100445.10;;;27.99;40.10
76551;BME280;68768;53.156;18.164;2023-07-29T11:37:36;100438.45;;;27.93;40.47
76551;BME280;68768;53.156;18.164;2023-07-29T11:40:04;100436.06;;;27.93;40.50
76551;BME280;68768;53.156;18.164;2023-07-29T11:42:33;100427.98;;;27.94;40.40
76551;BME280;68768;53.156;18.164;2023-07-29T11:45:03;100425.79;;;27.95;41.11
76551;BME280;68768;53.156;18.164;2023-07-29T11:47:32;100425.06;;;27.98;40.38
76551;BME280;68768;53.156;18.164;2023-07-29T11:50:08;100419.15;;;27.98;40.40
76551;BME280;68768;53.156;18.164;2023-07-29T11:52:37;100418.92;;;27.96;40.15
76551;BME280;68768;53.156;18.164;2023-07-29T11:55:05;100415.05;;;27.93;40.09
76551;BME280;68768;53.156;18.164;2023-07-29T11:57:36;100416.17;;;27.87;40.48
76551;BME280;68768;53.156;18.164;2023-07-29T12:00:05;100414.52;;;27.80;40.65
76551;BME280;68768;53.156;18.164;2023-07-29T12:02:40;100406.09;;;27.77;40.82
76551;BME280;68768;53.156;18.164;2023-07-29T12:05:09;100404.52;;;27.77;40.94
76551;BME280;68768;53.156;18.164;2023-07-29T12:07:38;100404.20;;;27.72;40.70
76551;BME280;68768;53.156;18.164;2023-07-29T12:10:06;100401.30;;;27.69;40.98
76551;BME280;68768;53.156;18.164;2023-07-29T12:12:44;100396.96;;;27.68;41.10
76551;BME280;68768;53.156;18.164;2023-07-29T12:15:12;100390.80;;;27.65;40.98
76551;BME280;68768;53.156;18.164;2023-07-29T12:17:40;100387.59;;;27.63;41.06
76551;BME280;68768;53.156;18.164;2023-07-29T12:20:09;100385.23;;;27.61;41.27
76551;BME280;68768;53.156;18.164;2023-07-29T12:22:37;100381.60;;;27.61;41.49
76551;BME280;68768;53.156;18.164;2023-07-29T12:25:04;100375.82;;;27.60;41.71
76551;BME280;68768;53.156;18.164;2023-07-29T12:27:32;100369.13;;;27.62;41.62
76551;BME280;68768;53.156;18.164;2023-07-29T12:30:01;100365.77;;;27.58;41.66
76551;BME280;68768;53.156;18.164;2023-07-29T12:32:30;100358.09;;;27.53;41.83
76551;BME280;68768;53.156;18.164;2023-07-29T12:34:57;100358.60;;;27.52;41.88
76551;BME280;68768;53.156;18.164;2023-07-29T12:37:33;100354.20;;;27.52;41.83
76551;BME280;68768;53.156;18.164;2023-07-29T12:40:01;100349.56;;;27.49;42.03
76551;BME280;68768;53.156;18.164;2023-07-29T12:42:29;100355.36;;;27.45;41.93
76551;BME280;68768;53.156;18.164;2023-07-29T12:44:56;100351.40;;;27.43;41.61
76551;BME280;68768;53.156;18.164;2023-07-29T12:47:23;100346.89;;;27.42;41.73
76551;BME280;68768;53.156;18.164;2023-07-29T12:49:50;100343.30;;;27.42;42.14
76551;BME280;68768;53.156;18.164;2023-07-29T12:52:17;100335.44;;;27.41;42.08
76551;BME280;68768;53.156;18.164;2023-07-29T12:54:44;100330.86;;;27.42;42.41
76551;BME280;68768;53.156;18.164;2023-07-29T12:57:11;100335.85;;;27.45;42.38
76551;BME280;68768;53.156;18.164;2023-07-29T12:59:38;100331.33;;;27.46;42.27
76551;BME280;68768;53.156;18.164;2023-07-29T13:02:05;100330.17;;;27.47;42.46
76551;BME280;68768;53.156;18.164;2023-07-29T13:04:32;100329.49;;;27.53;42.71
76551;BME280;68768;53.156;18.164;2023-07-29T13:06:59;100330.02;;;27.58;42.37